sensor_id;sensor_type;location;lat;lon;timestamp;temperature;humidity
12315;DHT22;23886;46.614;14.276;2023-04-06T00:00:33;-0.60;94.70
12315;DHT22;23886;46.614;14.276;2023-04-06T00:03:01;-0.60;95.50
12315;DHT22;23886;46.614;14.276;2023-04-06T00:05:28;-0.50;95.20
12315;DHT22;23886;46.614;14.276;2023-04-06T00:07:58;-0.60;95.30
12315;DHT22;23886;46.614;14.276;2023-04-06T00:10:25;-0.60;95.00
12315;DHT22;23886;46.614;14.276;2023-04-06T00:12:52;-0.50;95.10
12315;DHT22;23886;46.614;14.276;2023-04-06T00:15:20;-0.50;95.00
12315;DHT22;23886;46.614;14.276;2023-04-06T00:17:47;-0.50;95.00
12315;DHT22;23886;46.614;14.276;2023-04-06T00:20:14;-0.70;95.20
12315;DHT22;23886;46.614;14.276;2023-04-06T00:22:41;-0.70;95.50
12315;DHT22;23886;46.614;14.276;2023-04-06T00:25:10;-0.80;95.30
12315;DHT22;23886;46.614;14.276;2023-04-06T00:27:37;-0.90;95.70
12315;DHT22;23886;46.614;14.276;2023-04-06T00:30:05;-1.00;96.60
12315;DHT22;23886;46.614;14.276;2023-04-06T00:32:32;-1.00;96.90
12315;DHT22;23886;46.614;14.276;2023-04-06T00:34:59;-0.80;97.00
12315;DHT22;23886;46.614;14.276;2023-04-06T00:37:26;-0.80;96.90
12315;DHT22;23886;46.614;14.276;2023-04-06T00:39:53;-0.90;96.70
12315;DHT22;23886;46.614;14.276;2023-04-06T00:42:22;-0.80;96.60
12315;DHT22;23886;46.614;14.276;2023-04-06T00:44:52;-0.90;96.60
12315;DHT22;23886;46.614;14.276;2023-04-06T00:47:20;-0.90;96.70
12315;DHT22;23886;46.614;14.276;2023-04-06T00:49:47;-1.00;96.40
12315;DHT22;23886;46.614;14.276;2023-04-06T00:52:15;-1.00;97.10
12315;DHT22;23886;46.614;14.276;2023-04-06T00:54:42;-1.10;97.10
12315;DHT22;23886;46.614;14.276;2023-04-06T00:57:09;-1.10;97.30
12315;DHT22;23886;46.614;14.276;2023-04-06T00:59:37;-1.20;97.20
12315;DHT22;23886;46.614;14.276;2023-04-06T01:02:05;-1.30;97.40
12315;DHT22;23886;46.614;14.276;2023-04-06T01:04:32;-1.10;97.70
12315;DHT22;23886;46.614;14.276;2023-04-06T01:06:59;-1.10;97.50
12315;DHT22;23886;46.614;14.276;2023-04-06T01:09:27;-1.10;97.60
12315;DHT22;23886;46.614;14.276;2023-04-06T01:11:55;-1.20;97.30
12315;DHT22;23886;46.614;14.276;2023-04-06T01:14:22;-0.90;97.80
12315;DHT22;23886;46.614;14.276;2023-04-06T01:16:52;-1.20;97.20
12315;DHT22;23886;46.614;14.276;2023-04-06T01:19:19;-1.30;97.60
12315;DHT22;23886;46.614;14.276;2023-04-06T01:21:46;-1.30;97.80
12315;DHT22;23886;46.614;14.276;2023-04-06T01:24:16;-1.40;97.30
12315;DHT22;23886;46.614;14.276;2023-04-06T01:26:43;-1.40;97.40
12315;DHT22;23886;46.614;14.276;2023-04-06T01:29:10;-1.40;97.50
12315;DHT22;23886;46.614;14.276;2023-04-06T01:31:38;-1.60;97.30
12315;DHT22;23886;46.614;14.276;2023-04-06T01:34:05;-1.60;97.50
12315;DHT22;23886;46.614;14.276;2023-04-06T01:36:32;-1.40;98.20
12315;DHT22;23886;46.614;14.276;2023-04-06T01:38:59;-1.30;97.70
12315;DHT22;23886;46.614;14.276;2023-04-06T01:41:28;-1.40;97.40
12315;DHT22;23886;46.614;14.276;2023-04-06T01:43:55;-1.50;97.30
12315;DHT22;23886;46.614;14.276;2023-04-06T01:46:22;-1.50;97.20
12315;DHT22;23886;46.614;14.276;2023-04-06T01:48:49;-1.40;97.30
12315;DHT22;23886;46.614;14.276;2023-04-06T01:51:16;-1.30;97.30
12315;DHT22;23886;46.614;14.276;2023-04-06T01:53:43;-1.40;96.70
12315;DHT22;23886;46.614;14.276;2023-04-06T01:56:10;-1.40;97.00
12315;DHT22;23886;46.614;14.276;2023-04-06T01:58:38;-1.40;97.00
12315;DHT22;23886;46.614;14.276;2023-04-06T02:01:05;-1.50;96.90
12315;DHT22;23886;46.614;14.276;2023-04-06T02:03:32;-1.60;97.50
12315;DHT22;23886;46.614;14.276;2023-04-06T02:05:59;-1.70;97.70
12315;DHT22;23886;46.614;14.276;2023-04-06T02:08:27;-1.70;98.10
12315;DHT22;23886;46.614;14.276;2023-04-06T02:10:54;-1.70;98.20
12315;DHT22;23886;46.614;14.276;2023-04-06T02:13:21;-1.80;98.00
12315;DHT22;23886;46.614;14.276;2023-04-06T02:15:49;-1.80;98.20
12315;DHT22;23886;46.614;14.276;2023-04-06T02:18:16;-1.70;98.20
12315;DHT22;23886;46.614;14.276;2023-04-06T02:20:44;-1.60;98.00
12315;DHT22;23886;46.614;14.276;2023-04-06T02:23:11;-1.60;97.40
12315;DHT22;23886;46.614;14.276;2023-04-06T02:25:38;-1.70;97.20
12315;DHT22;23886;46.614;14.276;2023-04-06T02:28:05;-1.90;97.60
12315;DHT22;23886;46.614;14.276;2023-04-06T02:30:32;-2.00;97.60
12315;DHT22;23886;46.614;14.276;2023-04-06T02:33:01;-2.00;97.90
12315;DHT22;23886;46.614;14.276;2023-04-06T02:35:29;-2.10;97.70
12315;DHT22;23886;46.614;14.276;2023-04-06T02:37:56;-2.10;98.50
12315;DHT22;23886;46.614;14.276;2023-04-06T02:40:23;-2.10;98.70
12315;DHT22;23886;46.614;14.276;2023-04-06T02:42:51;-2.10;99.00
12315;DHT22;23886;46.614;14.276;2023-04-06T02:45:18;-2.20;98.70
12315;DHT22;23886;46.614;14.276;2023-04-06T02:47:45;-2.20;98.80
12315;DHT22;23886;46.614;14.276;2023-04-06T02:50:14;-2.20;99.10
12315;DHT22;23886;46.614;14.276;2023-04-06T02:52:41;-2.30;99.40
12315;DHT22;23886;46.614;14.276;2023-04-06T02:55:09;-2.20;99.50
12315;DHT22;23886;46.614;14.276;2023-04-06T02:57:36;-2.20;99.20
12315;DHT22;23886;46.614;14.276;2023-04-06T03:00:04;-2.30;99.60
12315;DHT22;23886;46.614;14.276;2023-04-06T03:02:31;-2.40;99.80
12315;DHT22;23886;46.614;14.276;2023-04-06T03:04:58;-2.40;99.70
12315;DHT22;23886;46.614;14.276;2023-04-06T03:07:26;-2.30;99.80
12315;DHT22;23886;46.614;14.276;2023-04-06T03:09:53;-2.10;99.40
12315;DHT22;23886;46.614;14.276;2023-04-06T03:12:21;-2.00;99.30
12315;DHT22;23886;46.614;14.276;2023-04-06T03:14:48;-2.00;99.10
12315;DHT22;23886;46.614;14.276;2023-04-06T03:17:15;-2.10;98.60
12315;DHT22;23886;46.614;14.276;2023-04-06T03:19:42;-2.30;98.60
12315;DHT22;23886;46.614;14.276;2023-04-06T03:22:09;-2.40;99.40
12315;DHT22;23886;46.614;14.276;2023-04-06T03:24:37;-2.40;99.50
12315;DHT22;23886;46.614;14.276;2023-04-06T03:27:04;-2.50;99.60
12315;DHT22;23886;46.614;14.276;2023-04-06T03:29:32;-2.50;99.70
12315;DHT22;23886;46.614;14.276;2023-04-06T03:31:59;-2.50;99.70
12315;DHT22;23886;46.614;14.276;2023-04-06T03:34:26;-2.60;99.60
12315;DHT22;23886;46.614;14.276;2023-04-06T03:36:53;-2.60;99.90
12315;DHT22;23886;46.614;14.276;2023-04-06T03:39:20;-2.60;99.90
12315;DHT22;23886;46.614;14.276;2023-04-06T03:41:48;-2.70;99.90
12315;DHT22;23886;46.614;14.276;2023-04-06T03:44:15;-2.70;99.90
12315;DHT22;23886;46.614;14.276;2023-04-06T03:46:42;-2.80;99.90
12315;DHT22;23886;46.614;14.276;2023-04-06T03:49:09;-2.80;99.90
12315;DHT22;23886;46.614;14.276;2023-04-06T03:51:36;-2.90;99.90
12315;DHT22;23886;46.614;14.276;2023-04-06T03:54:03;-2.90;99.90
12315;DHT22;23886;46.614;14.276;2023-04-06T03:56:30;-3.00;99.90
12315;DHT22;23886;46.614;14.276;2023-04-06T03:58:59;-3.10;99.90
12315;DHT22;23886;46.614;14.276;2023-04-06T04:01:27;-3.00;99.90
12315;DHT22;23886;46.614;14.276;2023-04-06T04:03:54;-3.00;99.90
12315;DHT22;23886;46.614;14.276;2023-04-06T04:06:21;-2.90;99.90
12315;DHT22;23886;46.614;14.276;2023-04-06T04:08:48;-2.90;99.90
12315;DHT22;23886;46.614;14.276;2023-04-06T04:11:15;-2.80;99.90
12315;DHT22;23886;46.614;14.276;2023-04-06T04:13:42;-3.00;99.90
12315;DHT22;23886;46.614;14.276;2023-04-06T04:16:11;-3.00;99.90
12315;DHT22;23886;46.614;14.276;2023-04-06T04:18:38;-3.00;99.90
12315;DHT22;23886;46.614;14.276;2023-04-06T04:21:05;-3.10;99.90
12315;DHT22;23886;46.614;14.276;2023-04-06T04:23:32;-3.00;99.90
12315;DHT22;23886;46.614;14.276;2023-04-06T04:25:59;-3.00;99.90
12315;DHT22;23886;46.614;14.276;2023-04-06T04:28:26;-3.00;99.90
12315;DHT22;23886;46.614;14.276;2023-04-06T04:30:53;-3.00;99.90
12315;DHT22;23886;46.614;14.276;2023-04-06T04:33:22;-3.00;99.90
12315;DHT22;23886;46.614;14.276;2023-04-06T04:35:49;-2.90;99.90
12315;DHT22;23886;46.614;14.276;2023-04-06T04:38:16;-3.00;99.90
12315;DHT22;23886;46.614;14.276;2023-04-06T04:40:43;-3.00;99.90
12315;DHT22;23886;46.614;14.276;2023-04-06T04:43:10;-3.00;99.90
12315;DHT22;23886;46.614;14.276;2023-04-06T04:45:37;-3.00;99.90
12315;DHT22;23886;46.614;14.276;2023-04-06T04:48:05;-2.80;99.90
12315;DHT22;23886;46.614;14.276;2023-04-06T04:50:34;-2.70;99.90
12315;DHT22;23886;46.614;14.276;2023-04-06T04:53:01;-2.60;99.90
12315;DHT22;23886;46.614;14.276;2023-04-06T04:55:30;-2.50;99.90
12315;DHT22;23886;46.614;14.276;2023-04-06T04:57:57;-2.50;99.90
12315;DHT22;23886;46.614;14.276;2023-04-06T05:00:24;-2.40;99.90
12315;DHT22;23886;46.614;14.276;2023-04-06T05:02:52;-2.50;99.90
12315;DHT22;23886;46.614;14.276;2023-04-06T05:05:19;-2.80;99.90
12315;DHT22;23886;46.614;14.276;2023-04-06T05:07:47;-2.80;99.90
12315;DHT22;23886;46.614;14.276;2023-04-06T05:10:15;-2.80;99.90
12315;DHT22;23886;46.614;14.276;2023-04-06T05:12:42;-2.70;99.90
12315;DHT22;23886;46.614;14.276;2023-04-06T05:15:10;-2.60;99.90
12315;DHT22;23886;46.614;14.276;2023-04-06T05:17:37;-2.50;99.90
12315;DHT22;23886;46.614;14.276;2023-04-06T05:20:05;-2.50;99.90
12315;DHT22;23886;46.614;14.276;2023-04-06T05:22:32;-2.40;99.90
12315;DHT22;23886;46.614;14.276;2023-04-06T05:25:01;-2.30;99.90
12315;DHT22;23886;46.614;14.276;2023-04-06T05:27:28;-2.20;99.90
12315;DHT22;23886;46.614;14.276;2023-04-06T05:29:55;-2.10;99.90
12315;DHT22;23886;46.614;14.276;2023-04-06T05:32:22;-2.00;99.90
12315;DHT22;23886;46.614;14.276;2023-04-06T05:34:50;-2.00;99.90
12315;DHT22;23886;46.614;14.276;2023-04-06T05:37:17;-2.00;99.90
12315;DHT22;23886;46.614;14.276;2023-04-06T05:39:44;-2.00;99.90
12315;DHT22;23886;46.614;14.276;2023-04-06T05:42:13;-1.70;99.90
12315;DHT22;23886;46.614;14.276;2023-04-06T05:44:40;-1.70;99.90
12315;DHT22;23886;46.614;14.276;2023-04-06T05:47:07;-1.60;99.90
12315;DHT22;23886;46.614;14.276;2023-04-06T05:49:35;-1.40;99.90
12315;DHT22;23886;46.614;14.276;2023-04-06T05:52:02;-1.40;99.90
12315;DHT22;23886;46.614;14.276;2023-04-06T05:54:29;-1.30;99.50
12315;DHT22;23886;46.614;14.276;2023-04-06T05:56:56;-1.20;99.20
12315;DHT22;23886;46.614;14.276;2023-04-06T05:59:25;-1.20;98.90
12315;DHT22;23886;46.614;14.276;2023-04-06T06:01:52;-1.10;98.50
12315;DHT22;23886;46.614;14.276;2023-04-06T06:04:19;-0.90;97.90
12315;DHT22;23886;46.614;14.276;2023-04-06T06:06:46;-0.80;97.40
12315;DHT22;23886;46.614;14.276;2023-04-06T06:09:13;-0.80;97.20
12315;DHT22;23886;46.614;14.276;2023-04-06T06:11:40;-0.70;97.00
12315;DHT22;23886;46.614;14.276;2023-04-06T06:14:07;-0.60;96.70
12315;DHT22;23886;46.614;14.276;2023-04-06T06:16:36;-0.40;97.00
12315;DHT22;23886;46.614;14.276;2023-04-06T06:19:03;-0.40;97.00
12315;DHT22;23886;46.614;14.276;2023-04-06T06:21:30;-0.30;96.50
12315;DHT22;23886;46.614;14.276;2023-04-06T06:23:57;-0.30;96.30
12315;DHT22;23886;46.614;14.276;2023-04-06T06:26:24;-0.20;96.30
12315;DHT22;23886;46.614;14.276;2023-04-06T06:28:51;-0.20;96.20
12315;DHT22;23886;46.614;14.276;2023-04-06T06:31:18;-0.20;96.00
12315;DHT22;23886;46.614;14.276;2023-04-06T06:33:47;0.00;96.40
12315;DHT22;23886;46.614;14.276;2023-04-06T06:36:16;0.10;95.80
12315;DHT22;23886;46.614;14.276;2023-04-06T06:38:43;0.30;95.70
12315;DHT22;23886;46.614;14.276;2023-04-06T06:41:11;0.40;95.10
12315;DHT22;23886;46.614;14.276;2023-04-06T06:43:38;0.50;95.10
12315;DHT22;23886;46.614;14.276;2023-04-06T06:46:05;0.60;94.60
12315;DHT22;23886;46.614;14.276;2023-04-06T06:48:32;0.70;94.90
12315;DHT22;23886;46.614;14.276;2023-04-06T06:51:01;0.70;94.30
12315;DHT22;23886;46.614;14.276;2023-04-06T06:53:28;0.70;93.90
12315;DHT22;23886;46.614;14.276;2023-04-06T06:55:55;0.70;94.30
12315;DHT22;23886;46.614;14.276;2023-04-06T06:58:22;0.90;94.10
12315;DHT22;23886;46.614;14.276;2023-04-06T07:00:49;1.10;94.00
12315;DHT22;23886;46.614;14.276;2023-04-06T07:03:16;1.10;93.70
12315;DHT22;23886;46.614;14.276;2023-04-06T07:05:45;1.30;93.40
12315;DHT22;23886;46.614;14.276;2023-04-06T07:08:17;1.50;92.80
12315;DHT22;23886;46.614;14.276;2023-04-06T07:10:44;1.50;92.30
12315;DHT22;23886;46.614;14.276;2023-04-06T07:13:11;1.50;92.20
12315;DHT22;23886;46.614;14.276;2023-04-06T07:15:40;1.60;92.40
12315;DHT22;23886;46.614;14.276;2023-04-06T07:18:07;1.90;92.40
12315;DHT22;23886;46.614;14.276;2023-04-06T07:20:34;2.10;92.20
12315;DHT22;23886;46.614;14.276;2023-04-06T07:23:01;2.20;91.70
12315;DHT22;23886;46.614;14.276;2023-04-06T07:25:29;2.20;91.80
12315;DHT22;23886;46.614;14.276;2023-04-06T07:27:56;2.40;91.20
12315;DHT22;23886;46.614;14.276;2023-04-06T07:30:24;2.30;91.10
12315;DHT22;23886;46.614;14.276;2023-04-06T07:32:51;2.50;91.10
12315;DHT22;23886;46.614;14.276;2023-04-06T07:35:21;2.50;90.80
12315;DHT22;23886;46.614;14.276;2023-04-06T07:37:48;2.50;90.50
12315;DHT22;23886;46.614;14.276;2023-04-06T07:40:15;2.60;90.60
12315;DHT22;23886;46.614;14.276;2023-04-06T07:42:43;2.80;90.00
12315;DHT22;23886;46.614;14.276;2023-04-06T07:45:11;2.90;90.00
12315;DHT22;23886;46.614;14.276;2023-04-06T07:47:38;2.70;88.40
12315;DHT22;23886;46.614;14.276;2023-04-06T07:50:06;2.70;88.90
12315;DHT22;23886;46.614;14.276;2023-04-06T07:52:33;3.00;88.70
12315;DHT22;23886;46.614;14.276;2023-04-06T07:55:00;3.10;88.50
12315;DHT22;23886;46.614;14.276;2023-04-06T07:57:27;3.10;87.00
12315;DHT22;23886;46.614;14.276;2023-04-06T07:59:56;3.20;87.10
12315;DHT22;23886;46.614;14.276;2023-04-06T08:02:23;3.30;86.60
12315;DHT22;23886;46.614;14.276;2023-04-06T08:04:50;3.40;86.80
12315;DHT22;23886;46.614;14.276;2023-04-06T08:07:17;3.60;87.10
12315;DHT22;23886;46.614;14.276;2023-04-06T08:09:44;3.60;84.30
12315;DHT22;23886;46.614;14.276;2023-04-06T08:12:11;3.60;84.50
12315;DHT22;23886;46.614;14.276;2023-04-06T08:14:38;3.80;83.50
12315;DHT22;23886;46.614;14.276;2023-04-06T08:17:06;3.90;82.70
12315;DHT22;23886;46.614;14.276;2023-04-06T08:19:33;4.00;81.70
12315;DHT22;23886;46.614;14.276;2023-04-06T08:22:01;4.00;82.50
12315;DHT22;23886;46.614;14.276;2023-04-06T08:24:28;4.10;82.10
12315;DHT22;23886;46.614;14.276;2023-04-06T08:26:56;4.30;82.90
12315;DHT22;23886;46.614;14.276;2023-04-06T08:29:23;4.30;81.70
12315;DHT22;23886;46.614;14.276;2023-04-06T08:31:50;4.20;81.00
12315;DHT22;23886;46.614;14.276;2023-04-06T08:36:46;4.30;80.50
12315;DHT22;23886;46.614;14.276;2023-04-06T08:39:13;4.40;80.50
12315;DHT22;23886;46.614;14.276;2023-04-06T08:41:41;4.60;80.90
12315;DHT22;23886;46.614;14.276;2023-04-06T08:44:09;4.80;79.80
12315;DHT22;23886;46.614;14.276;2023-04-06T08:46:37;4.80;78.70
12315;DHT22;23886;46.614;14.276;2023-04-06T08:49:04;4.80;80.30
12315;DHT22;23886;46.614;14.276;2023-04-06T08:51:36;5.00;80.80
12315;DHT22;23886;46.614;14.276;2023-04-06T08:54:03;5.10;79.40
12315;DHT22;23886;46.614;14.276;2023-04-06T08:56:30;5.20;79.20
12315;DHT22;23886;46.614;14.276;2023-04-06T08:58:58;5.40;78.90
12315;DHT22;23886;46.614;14.276;2023-04-06T09:01:26;5.60;77.30
12315;DHT22;23886;46.614;14.276;2023-04-06T09:03:56;5.60;77.70
12315;DHT22;23886;46.614;14.276;2023-04-06T09:06:24;5.90;79.40
12315;DHT22;23886;46.614;14.276;2023-04-06T09:08:54;6.00;78.00
12315;DHT22;23886;46.614;14.276;2023-04-06T09:11:22;6.20;77.40
12315;DHT22;23886;46.614;14.276;2023-04-06T09:13:50;6.10;74.60
12315;DHT22;23886;46.614;14.276;2023-04-06T09:16:18;5.80;75.20
12315;DHT22;23886;46.614;14.276;2023-04-06T09:18:46;5.90;74.30
12315;DHT22;23886;46.614;14.276;2023-04-06T09:21:16;6.20;74.40
12315;DHT22;23886;46.614;14.276;2023-04-06T09:23:43;6.30;73.80
12315;DHT22;23886;46.614;14.276;2023-04-06T09:26:12;6.60;72.60
12315;DHT22;23886;46.614;14.276;2023-04-06T09:28:44;6.80;71.50
12315;DHT22;23886;46.614;14.276;2023-04-06T09:31:12;6.80;69.70
12315;DHT22;23886;46.614;14.276;2023-04-06T09:33:41;6.80;70.10
12315;DHT22;23886;46.614;14.276;2023-04-06T09:36:08;7.10;68.20
12315;DHT22;23886;46.614;14.276;2023-04-06T09:38:52;7.30;68.60
12315;DHT22;23886;46.614;14.276;2023-04-06T09:41:25;7.50;67.00
12315;DHT22;23886;46.614;14.276;2023-04-06T09:44:01;7.50;67.40
12315;DHT22;23886;46.614;14.276;2023-04-06T09:46:31;7.60;69.20
12315;DHT22;23886;46.614;14.276;2023-04-06T09:48:59;7.70;69.80
12315;DHT22;23886;46.614;14.276;2023-04-06T09:51:29;7.80;67.80
12315;DHT22;23886;46.614;14.276;2023-04-06T09:53:57;7.70;67.00
12315;DHT22;23886;46.614;14.276;2023-04-06T09:56:30;7.40;66.00
12315;DHT22;23886;46.614;14.276;2023-04-06T09:59:02;7.50;66.80
12315;DHT22;23886;46.614;14.276;2023-04-06T10:01:33;7.80;66.70
12315;DHT22;23886;46.614;14.276;2023-04-06T10:04:10;7.90;65.90
12315;DHT22;23886;46.614;14.276;2023-04-06T10:06:40;7.90;65.90
12315;DHT22;23886;46.614;14.276;2023-04-06T10:09:08;8.10;66.00
12315;DHT22;23886;46.614;14.276;2023-04-06T10:11:36;8.00;65.50
12315;DHT22;23886;46.614;14.276;2023-04-06T10:14:03;8.00;65.80
12315;DHT22;23886;46.614;14.276;2023-04-06T10:16:31;8.10;65.30
12315;DHT22;23886;46.614;14.276;2023-04-06T10:19:06;8.20;66.60
12315;DHT22;23886;46.614;14.276;2023-04-06T10:21:36;8.60;67.90
12315;DHT22;23886;46.614;14.276;2023-04-06T10:24:08;8.80;65.10
12315;DHT22;23886;46.614;14.276;2023-04-06T10:26:39;8.80;64.50
12315;DHT22;23886;46.614;14.276;2023-04-06T10:29:06;8.90;65.60
12315;DHT22;23886;46.614;14.276;2023-04-06T10:31:39;9.10;65.40
12315;DHT22;23886;46.614;14.276;2023-04-06T10:34:06;8.90;64.90
12315;DHT22;23886;46.614;14.276;2023-04-06T10:36:34;9.00;62.20
12315;DHT22;23886;46.614;14.276;2023-04-06T10:39:02;9.00;62.10
12315;DHT22;23886;46.614;14.276;2023-04-06T10:41:34;9.20;62.40
12315;DHT22;23886;46.614;14.276;2023-04-06T10:44:03;9.30;62.50
12315;DHT22;23886;46.614;14.276;2023-04-06T10:46:32;9.70;63.90
12315;DHT22;23886;46.614;14.276;2023-04-06T10:49:09;9.60;61.30
12315;DHT22;23886;46.614;14.276;2023-04-06T10:51:38;9.80;61.80
12315;DHT22;23886;46.614;14.276;2023-04-06T10:54:06;10.00;59.40
12315;DHT22;23886;46.614;14.276;2023-04-06T10:56:36;10.10;62.40
12315;DHT22;23886;46.614;14.276;2023-04-06T10:59:06;9.90;62.10
12315;DHT22;23886;46.614;14.276;2023-04-06T11:01:33;9.60;63.40
12315;DHT22;23886;46.614;14.276;2023-04-06T11:04:00;9.90;63.90
12315;DHT22;23886;46.614;14.276;2023-04-06T11:06:29;9.80;60.50
12315;DHT22;23886;46.614;14.276;2023-04-06T11:08:58;9.80;62.00
12315;DHT22;23886;46.614;14.276;2023-04-06T11:11:26;10.10;62.70
12315;DHT22;23886;46.614;14.276;2023-04-06T11:13:54;10.20;62.10
12315;DHT22;23886;46.614;14.276;2023-04-06T11:16:24;10.50;60.10
12315;DHT22;23886;46.614;14.276;2023-04-06T11:18:53;10.60;59.80
12315;DHT22;23886;46.614;14.276;2023-04-06T11:21:33;10.70;60.80
12315;DHT22;23886;46.614;14.276;2023-04-06T11:24:08;10.90;59.60
12315;DHT22;23886;46.614;14.276;2023-04-06T11:26:39;10.90;62.10
12315;DHT22;23886;46.614;14.276;2023-04-06T11:29:07;10.90;60.60
12315;DHT22;23886;46.614;14.276;2023-04-06T11:31:39;11.00;60.20
12315;DHT22;23886;46.614;14.276;2023-04-06T11:34:11;10.90;59.40
12315;DHT22;23886;46.614;14.276;2023-04-06T11:36:41;11.10;59.80
12315;DHT22;23886;46.614;14.276;2023-04-06T11:39:09;10.90;60.00
12315;DHT22;23886;46.614;14.276;2023-04-06T11:41:36;10.70;58.10
12315;DHT22;23886;46.614;14.276;2023-04-06T11:44:04;10.80;58.50
12315;DHT22;23886;46.614;14.276;2023-04-06T11:46:32;11.30;60.70
12315;DHT22;23886;46.614;14.276;2023-04-06T11:49:01;11.60;59.20
12315;DHT22;23886;46.614;14.276;2023-04-06T11:51:29;11.50;58.00
12315;DHT22;23886;46.614;14.276;2023-04-06T11:53:56;11.40;58.90
12315;DHT22;23886;46.614;14.276;2023-04-06T11:56:26;11.70;60.80
12315;DHT22;23886;46.614;14.276;2023-04-06T11:58:57;12.10;58.20
12315;DHT22;23886;46.614;14.276;2023-04-06T12:01:26;12.10;56.00
12315;DHT22;23886;46.614;14.276;2023-04-06T12:03:53;12.60;56.80
12315;DHT22;23886;46.614;14.276;2023-04-06T12:06:22;13.00;56.70
12315;DHT22;23886;46.614;14.276;2023-04-06T12:08:49;13.30;55.90
12315;DHT22;23886;46.614;14.276;2023-04-06T12:11:16;13.30;55.20
12315;DHT22;23886;46.614;14.276;2023-04-06T12:13:45;13.40;56.30
12315;DHT22;23886;46.614;14.276;2023-04-06T12:16:12;13.60;55.60
12315;DHT22;23886;46.614;14.276;2023-04-06T12:18:40;13.80;55.60
12315;DHT22;23886;46.614;14.276;2023-04-06T12:21:07;13.10;53.40
12315;DHT22;23886;46.614;14.276;2023-04-06T12:23:35;13.50;55.40
12315;DHT22;23886;46.614;14.276;2023-04-06T12:26:03;13.30;57.20
12315;DHT22;23886;46.614;14.276;2023-04-06T12:28:30;13.60;56.90
12315;DHT22;23886;46.614;14.276;2023-04-06T12:30:57;13.90;55.90
12315;DHT22;23886;46.614;14.276;2023-04-06T12:33:24;14.10;56.10
12315;DHT22;23886;46.614;14.276;2023-04-06T12:35:51;13.40;53.30
12315;DHT22;23886;46.614;14.276;2023-04-06T12:38:18;12.30;55.40
12315;DHT22;23886;46.614;14.276;2023-04-06T12:40:47;12.50;54.10
12315;DHT22;23886;46.614;14.276;2023-04-06T12:43:14;13.00;54.60
12315;DHT22;23886;46.614;14.276;2023-04-06T12:45:41;13.00;54.30
12315;DHT22;23886;46.614;14.276;2023-04-06T12:48:08;13.00;53.10
12315;DHT22;23886;46.614;14.276;2023-04-06T12:50:35;13.40;52.80
12315;DHT22;23886;46.614;14.276;2023-04-06T12:53:02;13.00;53.40
12315;DHT22;23886;46.614;14.276;2023-04-06T12:55:30;13.00;54.00
12315;DHT22;23886;46.614;14.276;2023-04-06T12:58:01;13.00;53.30
12315;DHT22;23886;46.614;14.276;2023-04-06T13:00:28;13.30;52.80
12315;DHT22;23886;46.614;14.276;2023-04-06T13:02:56;13.40;53.30
12315;DHT22;23886;46.614;14.276;2023-04-06T13:05:23;13.10;52.70
12315;DHT22;23886;46.614;14.276;2023-04-06T13:07:50;12.90;53.70
12315;DHT22;23886;46.614;14.276;2023-04-06T13:10:17;13.80;54.00
12315;DHT22;23886;46.614;14.276;2023-04-06T13:12:44;13.50;52.50
12315;DHT22;23886;46.614;14.276;2023-04-06T13:15:13;13.40;52.40
12315;DHT22;23886;46.614;14.276;2023-04-06T13:17:40;13.60;52.60
12315;DHT22;23886;46.614;14.276;2023-04-06T13:20:08;14.40;53.40
12315;DHT22;23886;46.614;14.276;2023-04-06T13:22:35;15.50;51.20
12315;DHT22;23886;46.614;14.276;2023-04-06T13:25:03;15.20;51.90
12315;DHT22;23886;46.614;14.276;2023-04-06T13:27:30;16.70;49.70
12315;DHT22;23886;46.614;14.276;2023-04-06T13:29:59;15.40;49.70
12315;DHT22;23886;46.614;14.276;2023-04-06T13:32:28;16.60;50.60
12315;DHT22;23886;46.614;14.276;2023-04-06T13:34:55;16.50;47.40
12315;DHT22;23886;46.614;14.276;2023-04-06T13:37:22;15.80;50.00
12315;DHT22;23886;46.614;14.276;2023-04-06T13:39:49;16.00;49.00
12315;DHT22;23886;46.614;14.276;2023-04-06T13:42:16;16.50;48.50
12315;DHT22;23886;46.614;14.276;2023-04-06T13:44:43;15.70;49.30
12315;DHT22;23886;46.614;14.276;2023-04-06T13:47:12;15.30;49.50
12315;DHT22;23886;46.614;14.276;2023-04-06T13:49:42;15.50;49.70
12315;DHT22;23886;46.614;14.276;2023-04-06T13:52:09;14.00;51.00
12315;DHT22;23886;46.614;14.276;2023-04-06T13:54:36;14.30;52.20
12315;DHT22;23886;46.614;14.276;2023-04-06T13:57:04;15.60;49.80
12315;DHT22;23886;46.614;14.276;2023-04-06T13:59:33;16.00;50.40
12315;DHT22;23886;46.614;14.276;2023-04-06T14:02:00;16.00;49.20
12315;DHT22;23886;46.614;14.276;2023-04-06T14:04:27;16.50;49.60
12315;DHT22;23886;46.614;14.276;2023-04-06T14:06:55;15.30;48.60
12315;DHT22;23886;46.614;14.276;2023-04-06T14:09:22;15.10;50.40
12315;DHT22;23886;46.614;14.276;2023-04-06T14:11:50;16.10;50.00
12315;DHT22;23886;46.614;14.276;2023-04-06T14:14:17;15.70;48.30
12315;DHT22;23886;46.614;14.276;2023-04-06T14:16:44;15.40;49.40
12315;DHT22;23886;46.614;14.276;2023-04-06T14:19:12;15.00;49.10
12315;DHT22;23886;46.614;14.276;2023-04-06T14:21:40;16.00;49.50
12315;DHT22;23886;46.614;14.276;2023-04-06T14:24:09;18.30;47.20
12315;DHT22;23886;46.614;14.276;2023-04-06T14:26:36;18.90;46.40
12315;DHT22;23886;46.614;14.276;2023-04-06T14:29:04;18.70;44.30
12315;DHT22;23886;46.614;14.276;2023-04-06T14:31:31;18.80;45.20
12315;DHT22;23886;46.614;14.276;2023-04-06T14:34:01;17.60;45.10
12315;DHT22;23886;46.614;14.276;2023-04-06T14:36:28;15.70;47.10
12315;DHT22;23886;46.614;14.276;2023-04-06T14:39:02;16.00;47.00
12315;DHT22;23886;46.614;14.276;2023-04-06T14:41:32;16.60;47.30
12315;DHT22;23886;46.614;14.276;2023-04-06T14:43:59;16.50;45.70
12315;DHT22;23886;46.614;14.276;2023-04-06T14:46:26;15.60;47.20
12315;DHT22;23886;46.614;14.276;2023-04-06T14:48:54;16.50;48.00
12315;DHT22;23886;46.614;14.276;2023-04-06T14:51:24;16.80;46.80
12315;DHT22;23886;46.614;14.276;2023-04-06T14:53:52;17.80;45.40
12315;DHT22;23886;46.614;14.276;2023-04-06T14:56:20;16.40;45.30
12315;DHT22;23886;46.614;14.276;2023-04-06T14:58:49;16.00;47.20
12315;DHT22;23886;46.614;14.276;2023-04-06T15:01:17;16.50;48.20
12315;DHT22;23886;46.614;14.276;2023-04-06T15:03:44;15.40;48.40
12315;DHT22;23886;46.614;14.276;2023-04-06T15:06:13;15.00;48.80
12315;DHT22;23886;46.614;14.276;2023-04-06T15:08:41;14.90;48.20
12315;DHT22;23886;46.614;14.276;2023-04-06T15:11:09;15.60;47.60
12315;DHT22;23886;46.614;14.276;2023-04-06T15:13:36;16.30;47.30
12315;DHT22;23886;46.614;14.276;2023-04-06T15:16:05;16.50;47.30
12315;DHT22;23886;46.614;14.276;2023-04-06T15:18:32;17.90;46.20
12315;DHT22;23886;46.614;14.276;2023-04-06T15:21:00;19.60;45.00
12315;DHT22;23886;46.614;14.276;2023-04-06T15:23:27;19.20;45.00
12315;DHT22;23886;46.614;14.276;2023-04-06T15:25:55;17.90;45.80